CSN1213 ZUCK-ZUUU
Flight info
| Callsign | CSN1213 |
|---|---|
| Flight time | 0h 43m |
| Altitude | 13800 |
| Route | URGEG W231 EKOKA |
| Aircraft | A359/H-SDE2E3GHIJ3J4J5LM1ORWXY/LB1D1 |
Departure
| Time | 2026-04-28 10:04 |
|---|---|
| Airport | Chongqing Jiangbei International Airport (ZUCK) |
Arrival
| Time | 2026-04-28 10:47 |
|---|---|
| Airport | Chengdu Shuangliu International Airport (ZUUU) |
| Time | Latitude | Longitude | Altitude | Speed | Heading |
|---|---|---|---|---|---|
| 2026-04-28 09:46 | 29.72039 | 106.63823 | 1378 ft | 0 kts | 340° |
| 2026-04-28 09:53 | 29.72038 | 106.63823 | 1378 ft | 1 kts | 340° |
| 2026-04-28 09:53 | 29.72024 | 106.63826 | 1378 ft | 2 kts | 358° |
| 2026-04-28 09:53 | 29.72009 | 106.63827 | 1378 ft | 2 kts | 358° |
| 2026-04-28 09:54 | 29.71996 | 106.63827 | 1378 ft | 0 kts | 355° |
| 2026-04-28 09:54 | 29.71985 | 106.63829 | 1378 ft | 2 kts | 337° |
| 2026-04-28 09:54 | 29.71973 | 106.63840 | 1378 ft | 2 kts | 302° |
| 2026-04-28 09:54 | 29.71968 | 106.63856 | 1378 ft | 2 kts | 270° |
| 2026-04-28 09:55 | 29.71971 | 106.63872 | 1378 ft | 2 kts | 238° |
| 2026-04-28 09:55 | 29.71982 | 106.63885 | 1378 ft | 1 kts | 206° |
| 2026-04-28 09:55 | 29.71987 | 106.63888 | 1378 ft | 0 kts | 199° |
| 2026-04-28 09:57 | 29.71985 | 106.63887 | 1378 ft | 0 kts | 199° |
| 2026-04-28 09:57 | 29.71975 | 106.63882 | 1378 ft | 4 kts | 199° |
| 2026-04-28 09:57 | 29.71921 | 106.63862 | 1378 ft | 11 kts | 198° |
| 2026-04-28 09:58 | 29.71835 | 106.63832 | 1378 ft | 13 kts | 197° |
| 2026-04-28 09:58 | 29.71746 | 106.63801 | 1378 ft | 13 kts | 197° |
| 2026-04-28 09:58 | 29.71655 | 106.63769 | 1378 ft | 14 kts | 197° |
| 2026-04-28 09:58 | 29.71560 | 106.63738 | 1378 ft | 14 kts | 197° |
| 2026-04-28 09:59 | 29.71461 | 106.63704 | 1378 ft | 14 kts | 197° |
| 2026-04-28 09:59 | 29.71363 | 106.63696 | 1378 ft | 14 kts | 146° |
| 2026-04-28 09:59 | 29.71343 | 106.63717 | 1378 ft | 5 kts | 141° |
| 2026-04-28 09:59 | 29.71272 | 106.63721 | 1378 ft | 15 kts | 196° |
| 2026-04-28 10:00 | 29.71166 | 106.63685 | 1378 ft | 16 kts | 197° |
| 2026-04-28 10:00 | 29.71059 | 106.63648 | 1378 ft | 16 kts | 197° |
| 2026-04-28 10:00 | 29.70949 | 106.63610 | 1378 ft | 16 kts | 197° |
| 2026-04-28 10:00 | 29.70836 | 106.63570 | 1378 ft | 17 kts | 197° |
| 2026-04-28 10:01 | 29.70714 | 106.63529 | 1378 ft | 19 kts | 198° |
| 2026-04-28 10:01 | 29.70623 | 106.63500 | 1378 ft | 5 kts | 188° |
| 2026-04-28 10:01 | 29.70594 | 106.63503 | 1378 ft | 2 kts | 141° |
| 2026-04-28 10:01 | 29.70582 | 106.63517 | 1378 ft | 2 kts | 130° |
| 2026-04-28 10:02 | 29.70572 | 106.63536 | 1378 ft | 3 kts | 116° |
| 2026-04-28 10:02 | 29.70561 | 106.63571 | 1378 ft | 5 kts | 107° |
| 2026-04-28 10:02 | 29.70548 | 106.63622 | 1378 ft | 7 kts | 107° |
| 2026-04-28 10:02 | 29.70550 | 106.63677 | 1378 ft | 6 kts | 53° |
| 2026-04-28 10:03 | 29.70590 | 106.63702 | 1378 ft | 7 kts | 17° |
| 2026-04-28 10:03 | 29.70745 | 106.63754 | 1378 ft | 52 kts | 15° |
| 2026-04-28 10:03 | 29.71283 | 106.63940 | 1379 ft | 113 kts | 17° |
| 2026-04-28 10:03 | 29.72246 | 106.64271 | 1379 ft | 171 kts | 16° |
| 2026-04-28 10:04 | 29.73510 | 106.64715 | 1661 ft | 198 kts | 15° |
| 2026-04-28 10:04 | 29.74797 | 106.65177 | 2464 ft | 199 kts | 15° |
| 2026-04-28 10:04 | 29.76126 | 106.65653 | 3266 ft | 202 kts | 14° |
| 2026-04-28 10:04 | 29.77475 | 106.66115 | 4044 ft | 208 kts | 14° |
| 2026-04-28 10:05 | 29.78850 | 106.66583 | 4808 ft | 214 kts | 14° |
| 2026-04-28 10:05 | 29.80316 | 106.67084 | 5484 ft | 227 kts | 14° |
| 2026-04-28 10:05 | 29.81867 | 106.67615 | 6081 ft | 243 kts | 15° |
| 2026-04-28 10:05 | 29.83530 | 106.68189 | 6633 ft | 262 kts | 15° |
| 2026-04-28 10:06 | 29.85361 | 106.68821 | 6890 ft | 293 kts | 15° |
| 2026-04-28 10:06 | 29.87452 | 106.69545 | 6904 ft | 332 kts | 15° |
| 2026-04-28 10:06 | 29.89759 | 106.70347 | 7139 ft | 361 kts | 16° |
| 2026-04-28 10:06 | 29.92126 | 106.71172 | 8164 ft | 362 kts | 16° |
| 2026-04-28 10:07 | 29.94474 | 106.71991 | 9442 ft | 355 kts | 15° |
| 2026-04-28 10:07 | 29.96796 | 106.72431 | 10597 ft | 346 kts | 355° |
| 2026-04-28 10:07 | 29.99010 | 106.71740 | 11634 ft | 331 kts | 329° |
| 2026-04-28 10:07 | 30.00684 | 106.70091 | 12468 ft | 318 kts | 305° |
| 2026-04-28 10:08 | 30.01653 | 106.67905 | 13180 ft | 296 kts | 288° |
| 2026-04-28 10:08 | 30.02295 | 106.65688 | 13613 ft | 289 kts | 287° |
| 2026-04-28 10:08 | 30.02929 | 106.63426 | 13756 ft | 288 kts | 287° |
| 2026-04-28 10:08 | 30.03586 | 106.61179 | 13758 ft | 287 kts | 288° |
| 2026-04-28 10:09 | 30.04272 | 106.58911 | 13761 ft | 287 kts | 288° |
| 2026-04-28 10:09 | 30.05087 | 106.56718 | 13754 ft | 288 kts | 302° |
| 2026-04-28 10:09 | 30.06418 | 106.54954 | 13759 ft | 291 kts | 321° |
| 2026-04-28 10:09 | 30.08184 | 106.53794 | 13766 ft | 304 kts | 340° |
| 2026-04-28 10:10 | 30.10330 | 106.53350 | 13766 ft | 324 kts | 358° |
| 2026-04-28 10:10 | 30.12633 | 106.53348 | 13767 ft | 342 kts | 0° |
| 2026-04-28 10:10 | 30.14747 | 106.53399 | 13764 ft | 358 kts | 0° |
| 2026-04-28 10:10 | 30.17225 | 106.53449 | 13762 ft | 375 kts | 0° |
| 2026-04-28 10:11 | 30.20143 | 106.53485 | 13760 ft | 392 kts | 0° |
| 2026-04-28 10:11 | 30.22928 | 106.53500 | 13760 ft | 407 kts | 360° |
| 2026-04-28 10:11 | 30.25770 | 106.53506 | 13758 ft | 420 kts | 360° |
| 2026-04-28 10:11 | 30.28718 | 106.53512 | 13757 ft | 424 kts | 360° |
| 2026-04-28 10:12 | 30.31668 | 106.53520 | 13759 ft | 424 kts | 359° |
| 2026-04-28 10:12 | 30.34575 | 106.53216 | 13754 ft | 423 kts | 346° |
| 2026-04-28 10:12 | 30.37321 | 106.52047 | 13760 ft | 422 kts | 330° |
| 2026-04-28 10:12 | 30.39708 | 106.50087 | 13770 ft | 420 kts | 318° |
| 2026-04-28 10:13 | 30.41868 | 106.47811 | 13768 ft | 420 kts | 316° |
| 2026-04-28 10:13 | 30.43962 | 106.45519 | 13767 ft | 419 kts | 316° |
| 2026-04-28 10:13 | 30.46102 | 106.43183 | 13770 ft | 419 kts | 316° |
| 2026-04-28 10:13 | 30.48207 | 106.40905 | 13774 ft | 419 kts | 316° |
| 2026-04-28 10:14 | 30.50356 | 106.38597 | 13778 ft | 419 kts | 316° |
| 2026-04-28 10:14 | 30.52470 | 106.36336 | 13781 ft | 419 kts | 316° |
| 2026-04-28 10:14 | 30.54628 | 106.34031 | 13783 ft | 419 kts | 316° |
| 2026-04-28 10:14 | 30.56750 | 106.31754 | 13781 ft | 419 kts | 315° |
| 2026-04-28 10:15 | 30.58808 | 106.29359 | 13778 ft | 418 kts | 311° |
| 2026-04-28 10:15 | 30.60669 | 106.26791 | 13779 ft | 417 kts | 306° |
| 2026-04-28 10:15 | 30.62326 | 106.24062 | 13783 ft | 416 kts | 302° |
| 2026-04-28 10:15 | 30.63874 | 106.21271 | 13787 ft | 416 kts | 301° |
| 2026-04-28 10:16 | 30.65390 | 106.18483 | 13791 ft | 416 kts | 301° |
| 2026-04-28 10:16 | 30.66899 | 106.15709 | 13794 ft | 416 kts | 301° |
| 2026-04-28 10:16 | 30.68436 | 106.12893 | 13795 ft | 416 kts | 301° |
| 2026-04-28 10:16 | 30.69984 | 106.10069 | 13794 ft | 417 kts | 301° |
| 2026-04-28 10:17 | 30.71540 | 106.07235 | 13790 ft | 417 kts | 301° |
| 2026-04-28 10:17 | 30.72924 | 106.04268 | 13773 ft | 416 kts | 290° |
| 2026-04-28 10:17 | 30.73625 | 106.01014 | 13771 ft | 414 kts | 275° |
| 2026-04-28 10:17 | 30.73577 | 105.97680 | 13774 ft | 412 kts | 262° |
| 2026-04-28 10:18 | 30.73144 | 105.94411 | 13776 ft | 412 kts | 259° |
| 2026-04-28 10:18 | 30.72650 | 105.91116 | 13773 ft | 412 kts | 259° |
| 2026-04-28 10:18 | 30.72161 | 105.87866 | 13770 ft | 413 kts | 259° |
| 2026-04-28 10:18 | 30.71670 | 105.84543 | 13768 ft | 413 kts | 259° |
| 2026-04-28 10:19 | 30.71195 | 105.81280 | 13766 ft | 413 kts | 259° |
| 2026-04-28 10:19 | 30.70720 | 105.77981 | 13764 ft | 413 kts | 259° |
| 2026-04-28 10:19 | 30.70249 | 105.74692 | 13763 ft | 413 kts | 260° |
| 2026-04-28 10:19 | 30.69788 | 105.71465 | 13762 ft | 413 kts | 260° |
| 2026-04-28 10:20 | 30.69313 | 105.68143 | 13761 ft | 413 kts | 260° |
| 2026-04-28 10:20 | 30.68846 | 105.64883 | 13761 ft | 413 kts | 260° |
| 2026-04-28 10:20 | 30.68374 | 105.61592 | 13761 ft | 413 kts | 260° |
| 2026-04-28 10:20 | 30.67903 | 105.58308 | 13761 ft | 413 kts | 260° |
| 2026-04-28 10:21 | 30.67433 | 105.55038 | 13761 ft | 413 kts | 260° |
| 2026-04-28 10:21 | 30.66957 | 105.51733 | 13761 ft | 413 kts | 260° |
| 2026-04-28 10:21 | 30.66487 | 105.48484 | 13761 ft | 413 kts | 260° |
| 2026-04-28 10:21 | 30.66013 | 105.45202 | 13761 ft | 413 kts | 260° |
| 2026-04-28 10:22 | 30.65536 | 105.41915 | 13761 ft | 413 kts | 260° |
| 2026-04-28 10:22 | 30.65056 | 105.38608 | 13761 ft | 413 kts | 260° |
| 2026-04-28 10:22 | 30.64579 | 105.35326 | 13761 ft | 413 kts | 260° |
| 2026-04-28 10:22 | 30.64261 | 105.33141 | 13761 ft | 413 kts | 259° |
| 2026-04-28 10:23 | 30.63992 | 105.31283 | 13761 ft | 413 kts | 259° |
| 2026-04-28 10:23 | 30.63432 | 105.27435 | 13762 ft | 413 kts | 259° |
| 2026-04-28 10:23 | 30.62942 | 105.24079 | 13761 ft | 414 kts | 259° |
| 2026-04-28 10:23 | 30.62460 | 105.20787 | 13761 ft | 414 kts | 259° |
| 2026-04-28 10:24 | 30.61978 | 105.17493 | 13761 ft | 414 kts | 259° |
| 2026-04-28 10:24 | 30.61497 | 105.14220 | 13761 ft | 414 kts | 259° |
| 2026-04-28 10:24 | 30.61014 | 105.10934 | 13761 ft | 414 kts | 259° |
| 2026-04-28 10:24 | 30.60530 | 105.07640 | 13760 ft | 415 kts | 259° |
| 2026-04-28 10:25 | 30.60039 | 105.04311 | 13759 ft | 418 kts | 259° |
| 2026-04-28 10:25 | 30.59549 | 105.01012 | 13758 ft | 421 kts | 259° |
| 2026-04-28 10:25 | 30.59043 | 104.97629 | 13757 ft | 425 kts | 259° |
| 2026-04-28 10:25 | 30.58535 | 104.94241 | 13757 ft | 429 kts | 259° |
| 2026-04-28 10:26 | 30.58013 | 104.90801 | 13759 ft | 430 kts | 261° |
| 2026-04-28 10:26 | 30.57504 | 104.87405 | 13761 ft | 429 kts | 262° |
| 2026-04-28 10:26 | 30.57002 | 104.84010 | 13762 ft | 427 kts | 262° |
| 2026-04-28 10:26 | 30.56501 | 104.80624 | 13758 ft | 420 kts | 262° |
| 2026-04-28 10:27 | 30.56001 | 104.77313 | 13761 ft | 417 kts | 261° |
| 2026-04-28 10:27 | 30.55381 | 104.74018 | 13761 ft | 418 kts | 257° |
| 2026-04-28 10:27 | 30.54588 | 104.70776 | 13761 ft | 418 kts | 253° |
| 2026-04-28 10:27 | 30.53630 | 104.67584 | 13762 ft | 419 kts | 251° |
| 2026-04-28 10:28 | 30.52632 | 104.64437 | 13761 ft | 419 kts | 251° |
| 2026-04-28 10:28 | 30.51624 | 104.61285 | 13761 ft | 419 kts | 251° |
| 2026-04-28 10:28 | 30.50606 | 104.58102 | 13761 ft | 419 kts | 251° |
| 2026-04-28 10:29 | 30.48592 | 104.51797 | 13761 ft | 419 kts | 251° |
| 2026-04-28 10:29 | 30.47590 | 104.48657 | 13761 ft | 419 kts | 251° |
| 2026-04-28 10:29 | 30.46577 | 104.45482 | 13761 ft | 419 kts | 251° |
| 2026-04-28 10:29 | 30.45562 | 104.42305 | 13761 ft | 419 kts | 251° |
| 2026-04-28 10:30 | 30.44562 | 104.39173 | 13761 ft | 419 kts | 251° |
| 2026-04-28 10:30 | 30.43549 | 104.36006 | 13501 ft | 419 kts | 251° |
| 2026-04-28 10:30 | 30.42542 | 104.32851 | 12984 ft | 416 kts | 250° |
| 2026-04-28 10:30 | 30.41537 | 104.29699 | 12479 ft | 413 kts | 250° |
| 2026-04-28 10:31 | 30.40550 | 104.26611 | 11981 ft | 410 kts | 250° |
| 2026-04-28 10:31 | 30.39566 | 104.23535 | 11479 ft | 406 kts | 250° |
| 2026-04-28 10:31 | 30.38586 | 104.20473 | 10977 ft | 404 kts | 250° |
| 2026-04-28 10:31 | 30.37618 | 104.17465 | 10480 ft | 402 kts | 249° |
| 2026-04-28 10:32 | 30.36651 | 104.14441 | 9977 ft | 399 kts | 248° |
| 2026-04-28 10:32 | 30.35685 | 104.11431 | 9465 ft | 389 kts | 248° |
| 2026-04-28 10:32 | 30.34769 | 104.08592 | 8971 ft | 368 kts | 248° |
| 2026-04-28 10:32 | 30.33892 | 104.05890 | 8471 ft | 349 kts | 248° |
| 2026-04-28 10:33 | 30.33067 | 104.03336 | 7980 ft | 331 kts | 248° |
| 2026-04-28 10:33 | 30.32278 | 104.00898 | 7474 ft | 318 kts | 247° |
| 2026-04-28 10:33 | 30.31523 | 103.98567 | 6980 ft | 306 kts | 246° |
| 2026-04-28 10:33 | 30.30518 | 103.96476 | 6448 ft | 289 kts | 223° |
| 2026-04-28 10:34 | 30.28928 | 103.95182 | 5967 ft | 275 kts | 201° |
| 2026-04-28 10:34 | 30.27212 | 103.94390 | 5530 ft | 266 kts | 198° |
| 2026-04-28 10:34 | 30.25512 | 103.93631 | 5078 ft | 259 kts | 198° |
| 2026-04-28 10:34 | 30.23862 | 103.92891 | 4633 ft | 253 kts | 201° |
| 2026-04-28 10:35 | 30.22221 | 103.92148 | 4177 ft | 251 kts | 199° |
| 2026-04-28 10:35 | 30.20593 | 103.91384 | 3730 ft | 257 kts | 200° |
| 2026-04-28 10:35 | 30.18920 | 103.90617 | 3281 ft | 263 kts | 198° |
| 2026-04-28 10:35 | 30.17250 | 103.89850 | 2911 ft | 264 kts | 199° |
| 2026-04-28 10:36 | 30.15574 | 103.89066 | 2842 ft | 254 kts | 199° |
| 2026-04-28 10:36 | 30.14227 | 103.88444 | 2844 ft | 247 kts | 201° |
| 2026-04-28 10:36 | 30.13567 | 103.88142 | 2832 ft | 244 kts | 200° |
| 2026-04-28 10:36 | 30.11984 | 103.87399 | 2821 ft | 250 kts | 201° |
| 2026-04-28 10:37 | 30.10853 | 103.86611 | 2804 ft | 256 kts | 223° |
| 2026-04-28 10:37 | 30.10023 | 103.84818 | 2812 ft | 259 kts | 260° |
| 2026-04-28 10:37 | 30.10277 | 103.82767 | 2812 ft | 258 kts | 294° |
| 2026-04-28 10:37 | 30.11145 | 103.81026 | 2817 ft | 246 kts | 301° |
| 2026-04-28 10:38 | 30.11752 | 103.79847 | 2826 ft | 235 kts | 296° |
| 2026-04-28 10:38 | 30.12317 | 103.78621 | 2831 ft | 224 kts | 295° |
| 2026-04-28 10:38 | 30.13139 | 103.77154 | 2794 ft | 218 kts | 321° |
| 2026-04-28 10:38 | 30.14502 | 103.76463 | 2810 ft | 215 kts | 2° |
| 2026-04-28 10:39 | 30.15947 | 103.76798 | 2850 ft | 216 kts | 24° |
| 2026-04-28 10:39 | 30.17353 | 103.77486 | 2846 ft | 218 kts | 26° |
| 2026-04-28 10:39 | 30.18739 | 103.78184 | 2836 ft | 217 kts | 27° |
| 2026-04-28 10:39 | 30.19747 | 103.78681 | 2824 ft | 216 kts | 27° |
| 2026-04-28 10:40 | 30.21122 | 103.79346 | 2826 ft | 215 kts | 23° |
| 2026-04-28 10:40 | 30.22462 | 103.79999 | 2843 ft | 203 kts | 20° |
| 2026-04-28 10:40 | 30.23768 | 103.80602 | 2878 ft | 203 kts | 20° |
| 2026-04-28 10:40 | 30.25078 | 103.81201 | 2906 ft | 203 kts | 20° |
| 2026-04-28 10:41 | 30.26394 | 103.81805 | 2931 ft | 203 kts | 20° |
| 2026-04-28 10:41 | 30.27701 | 103.82407 | 2949 ft | 203 kts | 20° |
| 2026-04-28 10:41 | 30.29012 | 103.83012 | 2962 ft | 203 kts | 20° |
| 2026-04-28 10:41 | 30.30320 | 103.83617 | 2971 ft | 203 kts | 20° |
| 2026-04-28 10:42 | 30.31622 | 103.84219 | 2976 ft | 203 kts | 20° |
| 2026-04-28 10:42 | 30.32925 | 103.84824 | 2980 ft | 203 kts | 20° |
| 2026-04-28 10:42 | 30.34236 | 103.85432 | 2983 ft | 203 kts | 20° |
| 2026-04-28 10:42 | 30.35120 | 103.85843 | 2984 ft | 203 kts | 20° |
| 2026-04-28 10:43 | 30.35938 | 103.86223 | 2985 ft | 203 kts | 20° |
| 2026-04-28 10:43 | 30.36690 | 103.86572 | 2986 ft | 203 kts | 20° |
| 2026-04-28 10:43 | 30.37982 | 103.87173 | 3001 ft | 193 kts | 20° |
| 2026-04-28 10:43 | 30.39190 | 103.87734 | 2994 ft | 185 kts | 20° |
| 2026-04-28 10:44 | 30.40381 | 103.88287 | 2990 ft | 185 kts | 20° |
| 2026-04-28 10:44 | 30.41569 | 103.88839 | 2988 ft | 185 kts | 20° |
| 2026-04-28 10:44 | 30.42768 | 103.89396 | 2987 ft | 185 kts | 20° |
| 2026-04-28 10:44 | 30.43966 | 103.89953 | 2988 ft | 185 kts | 20° |
| 2026-04-28 10:45 | 30.45138 | 103.90499 | 2976 ft | 177 kts | 20° |
| 2026-04-28 10:45 | 30.46258 | 103.91020 | 2832 ft | 170 kts | 20° |
| 2026-04-28 10:45 | 30.47317 | 103.91513 | 2619 ft | 163 kts | 20° |
| 2026-04-28 10:45 | 30.48375 | 103.92004 | 2416 ft | 162 kts | 19° |
| 2026-04-28 10:46 | 30.49419 | 103.92495 | 2205 ft | 162 kts | 20° |
| 2026-04-28 10:46 | 30.50474 | 103.92991 | 1983 ft | 162 kts | 20° |
| 2026-04-28 10:46 | 30.51516 | 103.93471 | 1763 ft | 162 kts | 19° |
| 2026-04-28 10:46 | 30.52533 | 103.93946 | 1643 ft | 147 kts | 20° |
| 2026-04-28 10:47 | 30.53282 | 103.94284 | 1641 ft | 86 kts | 22° |
| 2026-04-28 10:47 | 30.53640 | 103.94453 | 1641 ft | 24 kts | 22° |
| 2026-04-28 10:47 | 30.53745 | 103.94501 | 1641 ft | 22 kts | 22° |
| 2026-04-28 10:47 | 30.53925 | 103.94584 | 1641 ft | 28 kts | 20° |
| 2026-04-28 10:48 | 30.54118 | 103.94625 | 1641 ft | 28 kts | 356° |
| 2026-04-28 10:48 | 30.54318 | 103.94598 | 1641 ft | 29 kts | 353° |
| 2026-04-28 10:48 | 30.54484 | 103.94623 | 1641 ft | 24 kts | 22° |
| 2026-04-28 10:48 | 30.54641 | 103.94694 | 1641 ft | 24 kts | 22° |
| 2026-04-28 10:49 | 30.54799 | 103.94769 | 1641 ft | 24 kts | 22° |
| 2026-04-28 10:49 | 30.54956 | 103.94843 | 1641 ft | 24 kts | 19° |
| 2026-04-28 10:49 | 30.55040 | 103.94808 | 1641 ft | 9 kts | 296° |
| 2026-04-28 10:49 | 30.55067 | 103.94733 | 1641 ft | 10 kts | 293° |
| 2026-04-28 10:50 | 30.55096 | 103.94649 | 1641 ft | 11 kts | 293° |
| 2026-04-28 10:50 | 30.55123 | 103.94589 | 1641 ft | 14 kts | 303° |
| 2026-04-28 10:50 | 30.55239 | 103.94473 | 1641 ft | 17 kts | 335° |
| 2026-04-28 10:50 | 30.55353 | 103.94415 | 1641 ft | 18 kts | 336° |
| 2026-04-28 10:51 | 30.55468 | 103.94359 | 1641 ft | 18 kts | 336° |
| 2026-04-28 10:51 | 30.55587 | 103.94299 | 1641 ft | 18 kts | 336° |
| 2026-04-28 10:51 | 30.55711 | 103.94237 | 1641 ft | 20 kts | 337° |
| 2026-04-28 10:51 | 30.55850 | 103.94206 | 1641 ft | 20 kts | 5° |
| 2026-04-28 10:52 | 30.55990 | 103.94260 | 1641 ft | 21 kts | 21° |
| 2026-04-28 10:52 | 30.56124 | 103.94322 | 1641 ft | 21 kts | 22° |
| 2026-04-28 10:52 | 30.56264 | 103.94387 | 1641 ft | 21 kts | 21° |
| 2026-04-28 10:52 | 30.56407 | 103.94453 | 1641 ft | 22 kts | 22° |
| 2026-04-28 10:53 | 30.56549 | 103.94521 | 1641 ft | 22 kts | 23° |
| 2026-04-28 10:53 | 30.56696 | 103.94589 | 1641 ft | 22 kts | 21° |
| 2026-04-28 10:53 | 30.56842 | 103.94655 | 1641 ft | 22 kts | 20° |
| 2026-04-28 10:53 | 30.56956 | 103.94687 | 1641 ft | 16 kts | 10° |
| 2026-04-28 10:54 | 30.57037 | 103.94723 | 1641 ft | 8 kts | 46° |
| 2026-04-28 10:54 | 30.57051 | 103.94788 | 1641 ft | 8 kts | 103° |
| 2026-04-28 10:54 | 30.57026 | 103.94845 | 1641 ft | 2 kts | 114° |
| 2026-04-28 10:54 | 30.57024 | 103.94850 | 1641 ft | 0 kts | 112° |
| 2026-04-28 10:55 | 30.57023 | 103.94853 | 1641 ft | 0 kts | 112° |